Hovedside
METAR-TAF:

METAR-TAF

Lufthavner :

Moss lufthavn. Rygge

Rygge, Norge

breddegrad: 59-23N, lengdegrad: 010-47E, høyde over havet: 5 m

Gjeldene værobservasjon

Denne rapporten ble laget for 36 minutter siden, klokken 04:20 UTC
Vind 1 kt fra Øst
Temperatur 9°C
Luftfuktighet 93%
Trykk 1004 hPa
Sikt 10 km eller mer

METAR: ENRY 210420Z AUTO 09001KT 9999NDV OVC110/// 09/08 Q1004

Tid: 06:56 (04:56 UTC)

Varsel

Varsel gyldig fra 21. klokken 00 UTC til 21. klokken 24 UTC
Vind 5 kt fra skiftende retning
Sikt 10 km eller mer
Få skyer i en høyde av 2000 ft
Brutte skyer i en høyde av 7000 ft
lett regn
Blir
fra 21. klokken 03 UTC til 21. klokken 06 UTC
Vind 10 kt fra Nord
Midlertidig
fra 21. klokken 09 UTC til 21. klokken 20 UTC
Spredte skyer i en høyde av 2000 ft, Bygeskyer.
Brutte skyer i en høyde av 3000 ft
regnbyger

TAF: ENRY 2100/2124 VRB05KT 9999 -RA FEW020 BKN070 BECMG 2103/2106 36010KT TEMPO 2109/2120 SHRA SCT020CB BKN030

Værobservasjoner og værvarsel for over 4000 flyplasser (METAR- og TAF-rapporter).

Tilgjengelige stasjoner er representert av de røde og gule prikkene på kartet.

Hold musepekeren over prikken for å se navnet på stasjonen.

Klikk så for å se værobservasjoner og -varsler.

For å forandre kartet kan du klikke på den grønne knappen med svart kryss for å zoome inn, på den grønne knappen med strek for å zoome ut, eller på de grønne pilene for å se tilstøtende kart.


METAR-TAF: